Time;durP1;ratioP1;P1;durP2;ratioP2;P2;SDS_P1;SDS_P2;PMS_P1;PMS_P2;Temp;Humidity;BMP_temperature;BMP_pressure;BME280_temperature;BME280_humidity;BME280_pressure;Samples;Min_cycle;Max_cycle;Signal;HPM_P1;HPM_P2
2023/10/30 00:00:54;;;;;;;1.63;0.60;;;;;;;11.15;100.00;99681.94;7397657;19;20035;-68
2023/10/30 00:03:22;;;;;;;2.17;0.98;;;;;;;11.14;100.00;99676.78;7396782;19;20073;-67
2023/10/30 00:05:51;;;;;;;1.38;0.70;;;;;;;11.13;100.00;99678.53;7396679;19;20015;-68
2023/10/30 00:08:20;;;;;;;3.78;0.75;;;;;;;11.12;100.00;99674.22;7397007;19;20015;-67
2023/10/30 00:10:48;;;;;;;1.65;0.80;;;;;;;11.13;100.00;99680.31;7398623;19;20040;-67
2023/10/30 00:13:19;;;;;;;1.98;0.80;;;;;;;11.11;100.00;99683.00;7398433;19;20014;-68
2023/10/30 00:15:48;;;;;;;2.33;0.88;;;;;;;11.09;100.00;99687.44;7398893;19;20023;-68
2023/10/30 00:18:16;;;;;;;3.00;1.00;;;;;;;11.09;100.00;99684.81;7396328;19;20014;-68
2023/10/30 00:20:44;;;;;;;3.28;0.80;;;;;;;11.08;100.00;99677.84;7396858;19;20014;-68
2023/10/30 00:23:13;;;;;;;2.10;0.82;;;;;;;11.07;100.00;99676.19;7398646;19;20027;-68
2023/10/30 00:25:41;;;;;;;0.82;0.60;;;;;;;11.05;100.00;99678.84;7398208;19;20023;-68
2023/10/30 00:28:10;;;;;;;3.58;0.77;;;;;;;11.05;100.00;99694.59;7396203;19;20015;-68
2023/10/30 00:30:41;;;;;;;2.05;0.80;;;;;;;11.05;100.00;99693.75;7397616;19;20422;-68
2023/10/30 00:33:09;;;;;;;3.70;0.73;;;;;;;11.04;100.00;99702.53;7397458;19;20018;-68
2023/10/30 00:35:37;;;;;;;1.25;0.60;;;;;;;11.02;100.00;99696.47;7397317;19;20406;-68
2023/10/30 00:38:06;;;;;;;1.48;0.65;;;;;;;11.02;100.00;99709.59;7396317;19;20099;-68
2023/10/30 00:40:35;;;;;;;2.72;0.70;;;;;;;10.99;100.00;99721.06;7396946;19;20014;-68
2023/10/30 00:43:04;;;;;;;2.13;0.93;;;;;;;11.00;100.00;99721.94;7397496;19;20015;-67
2023/10/30 00:45:32;;;;;;;3.50;1.27;;;;;;;10.99;100.00;99725.50;7397484;19;20376;-68
2023/10/30 00:48:04;;;;;;;3.70;1.15;;;;;;;10.99;100.00;99730.72;7396110;19;20382;-68
2023/10/30 00:50:33;;;;;;;1.85;0.90;;;;;;;10.99;100.00;99741.22;7397622;19;20018;-68
2023/10/30 00:53:01;;;;;;;2.78;0.73;;;;;;;10.99;100.00;99736.81;7396014;19;20011;-68
2023/10/30 00:55:30;;;;;;;0.98;0.65;;;;;;;11.00;100.00;99735.06;7395437;19;20018;-68
2023/10/30 00:57:58;;;;;;;1.25;0.68;;;;;;;11.01;100.00;99726.28;7395524;19;20018;-68
2023/10/30 01:00:26;;;;;;;1.52;0.95;;;;;;;11.01;100.00;99723.66;7396427;19;20035;-68
2023/10/30 01:02:56;;;;;;;2.78;1.13;;;;;;;11.02;100.00;99727.97;7396912;19;20015;-68
2023/10/30 01:05:27;;;;;;;5.47;1.63;;;;;;;11.04;100.00;99718.28;7397304;19;20033;-68
2023/10/30 01:07:56;;;;;;;2.58;1.27;;;;;;;11.06;100.00;99726.97;7395130;19;20078;-68
2023/10/30 01:10:24;;;;;;;1.00;0.60;;;;;;;11.08;100.00;99733.84;7396326;19;20101;-68
2023/10/30 01:12:53;;;;;;;6.63;1.33;;;;;;;11.10;100.00;99732.94;7394841;19;20431;-68
2023/10/30 01:15:21;;;;;;;0.90;0.77;;;;;;;11.14;100.00;99729.28;7396173;19;20418;-68
2023/10/30 01:17:49;;;;;;;1.58;0.93;;;;;;;11.15;100.00;99744.13;7395419;19;20023;-68
2023/10/30 01:20:18;;;;;;;2.97;0.60;;;;;;;11.18;100.00;99738.72;7395634;19;20065;-68
2023/10/30 01:22:49;;;;;;;1.35;0.75;;;;;;;11.18;100.00;99736.09;7394706;19;20077;-68
2023/10/30 01:25:17;;;;;;;2.72;0.75;;;;;;;11.20;100.00;99736.91;7395954;19;20476;-68
2023/10/30 01:27:46;;;;;;;5.05;0.57;;;;;;;11.21;100.00;99739.47;7394389;19;20019;-68
2023/10/30 01:30:15;;;;;;;1.75;0.50;;;;;;;11.23;100.00;99739.38;7396293;19;20081;-68
2023/10/30 01:32:44;;;;;;;1.52;0.52;;;;;;;11.24;100.00;99736.69;7395979;19;20423;-68
2023/10/30 01:35:12;;;;;;;2.38;0.60;;;;;;;11.25;100.00;99751.53;7394306;19;20014;-68
2023/10/30 01:37:42;;;;;;;2.05;0.40;;;;;;;11.27;100.00;99761.13;7394948;19;20022;-68
2023/10/30 01:40:14;;;;;;;2.13;0.32;;;;;;;11.28;100.00;99765.47;7395608;19;20392;-68
2023/10/30 01:42:42;;;;;;;1.40;0.40;;;;;;;11.29;100.00;99767.19;7396181;19;20018;-68
2023/10/30 01:45:12;;;;;;;0.90;0.40;;;;;;;11.28;100.00;99765.47;7395287;19;20014;-68
2023/10/30 01:47:41;;;;;;;1.40;1.02;;;;;;;11.29;100.00;99768.03;7394208;19;20490;-68
2023/10/30 01:50:14;;;;;;;1.00;0.52;;;;;;;11.29;100.00;99768.03;7393875;19;20019;-68
2023/10/30 01:52:42;;;;;;;4.10;0.75;;;;;;;11.30;100.00;99774.13;7395566;19;20011;-68
2023/10/30 01:55:15;;;;;;;1.60;0.60;;;;;;;11.28;100.00;99758.44;7393698;19;20019;-68
2023/10/30 01:57:44;;;;;;;6.22;0.82;;;;;;;11.28;100.00;99752.34;7394558;19;20031;-68
2023/10/30 02:00:15;;;;;;;2.15;0.47;;;;;;;11.25;100.00;99758.56;7393322;19;20015;-68
2023/10/30 02:02:45;;;;;;;1.55;0.45;;;;;;;11.24;100.00;99759.47;7395576;19;20414;-68
2023/10/30 02:05:13;;;;;;;3.40;0.45;;;;;;;11.25;100.00;99753.31;7394498;19;20024;-68
2023/10/30 02:07:42;;;;;;;0.65;0.45;;;;;;;11.23;100.00;99766.53;7401133;19;20027;-68
2023/10/30 02:10:14;;;;;;;2.90;0.40;;;;;;;11.24;100.00;99757.69;7399740;19;20035;-68
2023/10/30 02:12:44;;;;;;;2.83;0.45;;;;;;;11.24;100.00;99764.72;7403336;19;20392;-69
2023/10/30 02:15:13;;;;;;;1.35;0.32;;;;;;;11.25;100.00;99769.91;7399592;19;20015;-68
2023/10/30 02:17:41;;;;;;;2.20;0.60;;;;;;;11.24;100.00;99772.63;7399036;19;20505;-67
2023/10/30 02:20:11;;;;;;;4.53;0.70;;;;;;;11.25;100.00;99774.31;7399462;19;20019;-69
2023/10/30 02:22:39;;;;;;;2.30;0.50;;;;;;;11.26;100.00;99765.53;7398653;19;20028;-68
2023/10/30 02:25:09;;;;;;;0.95;0.40;;;;;;;11.24;100.00;99757.69;7399193;19;20014;-68
2023/10/30 02:27:40;;;;;;;2.55;0.60;;;;;;;11.29;100.00;99767.19;7399078;19;20015;-68
2023/10/30 02:30:12;;;;;;;1.25;0.50;;;;;;;11.28;100.00;99765.47;7402368;19;20014;-68
2023/10/30 02:32:42;;;;;;;1.42;0.38;;;;;;;11.27;100.00;99769.84;7401550;19;20021;-68
2023/10/30 02:35:13;;;;;;;1.38;0.50;;;;;;;11.28;100.00;99789.09;7398726;19;20006;-68
2023/10/30 02:37:42;;;;;;;1.58;0.55;;;;;;;11.28;100.00;99781.22;7400862;19;20353;-69
2023/10/30 02:40:11;;;;;;;2.25;0.60;;;;;;;11.28;100.00;99789.94;7401143;19;20027;-69
2023/10/30 02:42:43;;;;;;;1.83;0.68;;;;;;;11.27;100.00;99792.63;7399950;19;20027;-70
2023/10/30 02:45:12;;;;;;;2.88;1.20;;;;;;;11.28;100.00;99796.97;7401874;19;20066;-68
2023/10/30 02:47:40;;;;;;;1.00;0.57;;;;;;;11.28;100.00;99802.22;7398160;19;20010;-68
2023/10/30 02:50:10;;;;;;;1.80;0.80;;;;;;;11.26;100.00;99799.69;7398659;19;20018;-68
2023/10/30 02:52:38;;;;;;;1.75;0.95;;;;;;;11.24;100.00;99797.09;7401183;19;20037;-67
2023/10/30 02:55:09;;;;;;;2.00;0.80;;;;;;;11.22;100.00;99785.81;7398597;19;20018;-67
2023/10/30 02:57:38;;;;;;;3.10;0.90;;;;;;;11.21;100.00;99799.00;7399989;19;20018;-67
2023/10/30 03:00:10;;;;;;;2.53;1.00;;;;;;;11.19;100.00;99790.31;7398417;19;20031;-67
2023/10/30 03:02:45;;;;;;;2.83;1.13;;;;;;;11.19;100.00;99801.66;7398228;19;20114;-67
2023/10/30 03:05:13;;;;;;;4.97;1.73;;;;;;;11.18;100.00;99785.97;7401326;19;20056;-67
2023/10/30 03:07:42;;;;;;;5.60;2.45;;;;;;;11.17;100.00;99772.00;7398945;19;20031;-67
2023/10/30 03:10:11;;;;;;;5.80;2.70;;;;;;;11.17;100.00;99779.00;7397743;19;20489;-66
2023/10/30 03:12:40;;;;;;;2.95;2.13;;;;;;;11.16;100.00;99779.94;7397604;19;20010;-66
2023/10/30 03:15:12;;;;;;;3.92;1.40;;;;;;;11.13;100.00;99783.53;7400973;19;20014;-67
2023/10/30 03:17:40;;;;;;;2.35;1.20;;;;;;;11.10;100.00;99772.31;7397474;19;20022;-67
2023/10/30 03:20:11;;;;;;;1.45;1.10;;;;;;;11.07;100.00;99789.88;7399863;19;20014;-67
2023/10/30 03:22:40;;;;;;;1.98;0.70;;;;;;;11.04;100.00;99797.88;7398351;19;20077;-68
2023/10/30 03:25:10;;;;;;;1.88;1.10;;;;;;;11.03;100.00;99792.69;7400174;19;20023;-67
2023/10/30 03:27:38;;;;;;;3.60;0.70;;;;;;;10.99;100.00;99778.81;7398779;19;20031;-68
2023/10/30 03:30:12;;;;;;;2.72;0.93;;;;;;;10.99;100.00;99791.09;7397257;19;20007;-68
2023/10/30 03:32:40;;;;;;;0.82;0.50;;;;;;;10.96;100.00;99793.84;7399950;19;20414;-67
2023/10/30 03:35:09;;;;;;;1.05;0.60;;;;;;;10.95;100.00;99792.13;7399803;19;20014;-67
2023/10/30 03:37:38;;;;;;;2.63;0.70;;;;;;;10.94;100.00;99785.19;7397979;19;20495;-68
2023/10/30 03:40:08;;;;;;;0.95;0.60;;;;;;;10.90;100.00;99792.31;7399549;19;20014;-69
2023/10/30 03:42:36;;;;;;;3.47;0.70;;;;;;;10.89;100.00;99783.59;7397190;19;20021;-69
2023/10/30 03:45:07;;;;;;;3.20;0.60;;;;;;;10.87;100.00;99781.94;7399480;19;20010;-67
2023/10/30 03:47:38;;;;;;;2.38;0.50;;;;;;;10.85;100.00;99776.72;7398574;19;20346;-68
2023/10/30 03:50:08;;;;;;;2.83;0.70;;;;;;;10.84;100.00;99774.16;7399573;19;20079;-68
2023/10/30 03:52:44;;;;;;;4.15;1.88;;;;;;;10.82;100.00;99776.03;7397335;19;20028;-68
2023/10/30 03:55:13;;;;;;;0.95;0.60;;;;;;;10.81;100.00;99776.94;7398961;19;20010;-67
2023/10/30 03:57:43;;;;;;;3.42;1.00;;;;;;;10.79;100.00;99778.75;7397635;19;20419;-69
2023/10/30 04:00:13;;;;;;;1.40;0.65;;;;;;;10.78;100.00;99777.03;7399021;19;20014;-68
2023/10/30 04:02:44;;;;;;;2.47;0.80;;;;;;;10.76;100.00;99779.72;7396701;19;20378;-68
2023/10/30 04:05:13;;;;;;;7.38;0.90;;;;;;;10.74;100.00;99789.41;7396370;19;20427;-67
2023/10/30 04:07:42;;;;;;;4.85;0.77;;;;;;;10.74;100.00;99789.41;7396354;19;20019;-69
2023/10/30 04:10:11;;;;;;;3.35;0.57;;;;;;;10.71;100.00;99774.63;7398601;19;20087;-69
2023/10/30 04:12:39;;;;;;;1.48;0.60;;;;;;;10.71;100.00;99784.28;7396334;19;20090;-69
2023/10/30 04:15:09;;;;;;;2.10;0.85;;;;;;;10.70;100.00;99804.44;7398049;19;20014;-68
2023/10/30 04:17:38;;;;;;;1.55;0.70;;;;;;;10.69;100.00;99802.72;7397263;19;20097;-67
2023/10/30 04:20:10;;;;;;;2.08;0.82;;;;;;;10.68;100.00;99805.38;7396383;19;20014;-68
2023/10/30 04:22:38;;;;;;;3.45;0.77;;;;;;;10.67;100.00;99809.78;7396478;19;20098;-68
2023/10/30 04:25:08;;;;;;;6.72;1.00;;;;;;;10.65;100.00;99795.84;7397778;19;20015;-69
2023/10/30 04:27:37;;;;;;;2.38;0.47;;;;;;;10.64;100.00;99786.28;7394026;19;20354;-68
2023/10/30 04:30:06;;;;;;;3.22;0.70;;;;;;;10.64;100.00;99788.91;7397974;19;20011;-69
2023/10/30 04:32:35;;;;;;;2.97;0.50;;;;;;;10.65;100.00;99792.38;7395733;19;20011;-67
2023/10/30 04:35:03;;;;;;;2.67;0.80;;;;;;;10.64;100.00;99798.53;7397283;19;20412;-69
2023/10/30 04:37:34;;;;;;;3.92;0.80;;;;;;;10.63;100.00;99796.81;7395594;19;20018;-69
2023/10/30 04:40:04;;;;;;;4.88;0.95;;;;;;;10.63;100.00;99802.94;7396146;19;20014;-69
2023/10/30 04:42:32;;;;;;;1.98;0.55;;;;;;;10.63;100.00;99805.56;7396343;19;20044;-68
2023/10/30 04:45:01;;;;;;;2.83;0.60;;;;;;;10.64;100.00;99809.91;7395321;19;20023;-68
2023/10/30 04:47:29;;;;;;;2.80;0.60;;;;;;;10.65;100.00;99808.13;7396345;19;20015;-68
2023/10/30 04:49:58;;;;;;;4.90;0.75;;;;;;;10.66;100.00;99808.06;7395552;19;20046;-67
2023/10/30 04:52:26;;;;;;;4.20;0.70;;;;;;;10.66;100.00;99796.72;7396862;19;20024;-67
2023/10/30 04:54:57;;;;;;;0.90;0.60;;;;;;;10.67;100.00;99814.16;7395453;19;20027;-68
2023/10/30 04:57:26;;;;;;;2.58;0.75;;;;;;;10.67;100.00;99815.00;7395762;19;20018;-67
2023/10/30 04:59:54;;;;;;;2.25;0.60;;;;;;;10.69;100.00;99801.84;7396878;19;20085;-67
2023/10/30 05:02:22;;;;;;;5.30;0.80;;;;;;;10.71;100.00;99802.66;7395414;19;20027;-67
2023/10/30 05:04:57;;;;;;;5.03;0.77;;;;;;;10.70;100.00;99808.81;7396564;19;20031;-67
2023/10/30 05:07:26;;;;;;;4.50;1.40;;;;;;;10.72;100.00;99812.22;7395528;19;20493;-67
2023/10/30 05:09:57;;;;;;;5.53;1.10;;;;;;;10.71;100.00;99816.59;7395049;19;20034;-67
2023/10/30 05:12:25;;;;;;;1.83;0.77;;;;;;;10.71;100.00;99805.28;7396541;19;20023;-68
2023/10/30 05:14:54;;;;;;;3.00;1.15;;;;;;;10.71;100.00;99811.34;7394413;19;20015;-68
2023/10/30 05:17:22;;;;;;;5.30;1.15;;;;;;;10.72;100.00;99799.13;7395772;19;20379;-68
2023/10/30 05:19:51;;;;;;;3.50;0.80;;;;;;;10.72;100.00;99797.34;7396184;19;20077;-68
2023/10/30 05:22:19;;;;;;;5.88;1.10;;;;;;;10.72;100.00;99792.09;7394271;19;20400;-68
2023/10/30 05:24:47;;;;;;;1.52;0.65;;;;;;;10.73;100.00;99803.47;7396099;19;20023;-68
2023/10/30 05:27:18;;;;;;;6.18;0.80;;;;;;;10.72;100.00;99797.34;7393802;19;20424;-68
2023/10/30 05:29:47;;;;;;;1.80;0.77;;;;;;;10.74;100.00;99799.91;7394959;19;20074;-67
2023/10/30 05:32:15;;;;;;;3.15;0.98;;;;;;;10.72;100.00;99802.59;7395627;19;20387;-68
2023/10/30 05:34:45;;;;;;;6.25;0.77;;;;;;;10.72;100.00;99802.59;7395200;19;20011;-67
2023/10/30 05:37:13;;;;;;;3.08;0.88;;;;;;;10.72;100.00;99805.19;7394539;19;20487;-68
2023/10/30 05:39:42;;;;;;;2.95;0.98;;;;;;;10.72;100.00;99807.81;7390408;19;20014;-68
2023/10/30 05:42:10;;;;;;;4.20;0.80;;;;;;;10.73;100.00;99816.56;7394715;19;20014;-68
2023/10/30 05:44:41;;;;;;;1.85;1.15;;;;;;;10.72;100.00;99823.56;7393400;19;20020;-68
2023/10/30 05:47:10;;;;;;;0.70;0.40;;;;;;;10.73;100.00;99833.16;7394065;19;20086;-68
2023/10/30 05:49:38;;;;;;;3.28;0.75;;;;;;;10.73;100.00;99822.66;7393455;19;20500;-67
2023/10/30 05:52:08;;;;;;;3.03;0.80;;;;;;;10.73;100.00;99819.19;7394990;19;20028;-68
2023/10/30 05:54:36;;;;;;;4.00;0.90;;;;;;;10.73;100.00;99820.03;7394887;19;20002;-69
2023/10/30 05:57:05;;;;;;;5.20;1.10;;;;;;;10.74;100.00;99820.88;7394335;19;20077;-68
2023/10/30 05:59:33;;;;;;;2.45;0.60;;;;;;;10.74;100.00;99820.88;7393271;19;20416;-68
2023/10/30 06:02:05;;;;;;;2.33;0.47;;;;;;;10.75;100.00;99817.34;7392311;19;20018;-68
2023/10/30 06:04:33;;;;;;;2.42;0.70;;;;;;;10.76;100.00;99824.31;7394723;19;20021;-68
2023/10/30 06:07:01;;;;;;;1.30;0.90;;;;;;;10.76;100.00;99835.66;7394282;19;20355;-68
2023/10/30 06:09:30;;;;;;;3.15;1.02;;;;;;;10.78;100.00;99842.63;7392579;19;20035;-68
2023/10/30 06:11:59;;;;;;;3.58;0.80;;;;;;;10.78;100.00;99846.13;7394503;19;20015;-68
2023/10/30 06:14:27;;;;;;;3.38;1.08;;;;;;;10.79;100.00;99845.19;7392523;19;20477;-68
2023/10/30 06:16:56;;;;;;;3.22;1.20;;;;;;;10.81;100.00;99848.59;7394070;19;20035;-68
2023/10/30 06:19:28;;;;;;;5.10;1.02;;;;;;;10.81;100.00;99859.09;7393987;19;20098;-68
2023/10/30 06:21:57;;;;;;;3.95;1.15;;;;;;;10.82;100.00;99852.09;7393370;19;20010;-68
2023/10/30 06:24:25;;;;;;;2.58;1.00;;;;;;;10.82;100.00;99845.06;7393968;19;20052;-68
2023/10/30 06:26:54;;;;;;;4.38;1.27;;;;;;;10.83;100.00;99838.94;7393564;19;20082;-68
2023/10/30 06:29:22;;;;;;;4.35;1.35;;;;;;;10.84;100.00;99859.00;7394153;19;20069;-68
2023/10/30 06:31:51;;;;;;;4.10;2.13;;;;;;;10.84;100.00;99852.88;7394326;19;20018;-68
2023/10/30 06:34:19;;;;;;;1.92;1.02;;;;;;;10.87;100.00;99860.66;7391108;19;20014;-68
2023/10/30 06:36:50;;;;;;;3.50;1.02;;;;;;;10.87;100.00;99860.66;7393526;19;20035;-68
2023/10/30 06:39:20;;;;;;;2.08;0.80;;;;;;;10.89;100.00;99850.94;7394355;19;20015;-68
2023/10/30 06:41:54;;;;;;;1.92;1.30;;;;;;;10.90;100.00;99858.75;7392729;19;20040;-68
2023/10/30 06:44:23;;;;;;;3.67;1.20;;;;;;;10.91;100.00;99852.59;7394569;19;20381;-68
2023/10/30 06:46:51;;;;;;;3.47;0.80;;;;;;;10.92;100.00;99854.31;7391282;19;20021;-68
2023/10/30 06:49:26;;;;;;;7.53;1.75;;;;;;;10.94;100.00;99846.38;7393031;19;20333;-68
2023/10/30 06:51:57;;;;;;;7.68;2.08;;;;;;;10.96;100.00;99848.97;7397285;19;20011;-68
2023/10/30 06:54:26;;;;;;;1.67;0.63;;;;;;;10.98;100.00;99844.50;7400892;19;20022;-68
2023/10/30 06:56:55;;;;;;;5.53;0.82;;;;;;;10.99;100.00;99840.97;7399973;19;20519;-68
2023/10/30 06:59:23;;;;;;;4.95;0.82;;;;;;;11.00;100.00;99843.53;7400797;19;20103;-68
2023/10/30 07:01:52;;;;;;;3.25;1.35;;;;;;;11.03;100.00;99847.81;7400601;19;20078;-70
2023/10/30 07:04:24;;;;;;;4.63;0.82;;;;;;;11.04;100.00;99854.75;7399846;19;20023;-68
2023/10/30 07:06:53;;;;;;;3.22;0.80;;;;;;;11.06;100.00;99866.91;7399254;19;20021;-66
2023/10/30 07:09:24;;;;;;;4.13;0.77;;;;;;;11.10;100.00;99858.94;7399460;19;20481;-67
2023/10/30 07:11:52;;;;;;;3.10;1.05;;;;;;;11.14;100.00;99869.25;7399765;19;20029;-68
2023/10/30 07:14:21;;;;;;;5.72;1.05;;;;;;;11.17;100.00;99871.78;7400082;19;20018;-67
2023/10/30 07:16:49;;;;;;;2.33;0.88;;;;;;;11.18;100.00;99873.47;7398976;19;20026;-67
2023/10/30 07:19:22;;;;;;;2.88;0.80;;;;;;;11.21;100.00;99881.25;7400504;19;20031;-69
2023/10/30 07:21:51;;;;;;;2.85;0.90;;;;;;;11.23;100.00;99871.53;7396580;19;20377;-69
2023/10/30 07:24:20;;;;;;;4.05;0.82;;;;;;;11.24;100.00;99878.47;7396738;19;20348;-69
2023/10/30 07:26:51;;;;;;;3.45;0.82;;;;;;;11.27;100.00;99892.41;7398950;19;20368;-69
2023/10/30 07:29:19;;;;;;;3.20;1.23;;;;;;;11.30;100.00;99887.91;7399829;19;20007;-69
2023/10/30 07:31:48;;;;;;;8.75;4.60;;;;;;;11.32;100.00;99893.09;7396793;19;20019;-69
2023/10/30 07:34:17;;;;;;;4.13;1.10;;;;;;;11.34;100.00;99910.50;7397022;19;20014;-66
2023/10/30 07:36:46;;;;;;;4.97;1.42;;;;;;;11.36;100.00;99906.06;7396329;19;20014;-69
2023/10/30 07:39:14;;;;;;;2.08;0.70;;;;;;;11.38;100.00;99908.63;7396185;19;20327;-66
2023/10/30 07:41:43;;;;;;;5.15;1.70;;;;;;;11.40;100.00;99910.28;7398401;19;20489;-66
2023/10/30 07:44:14;;;;;;;5.22;1.13;;;;;;;11.43;100.00;99904.03;7396719;19;20007;-67
2023/10/30 07:46:42;;;;;;;4.05;1.23;;;;;;;11.45;100.00;99902.22;7398415;19;20493;-67
2023/10/30 07:49:11;;;;;;;3.80;1.10;;;;;;;11.49;100.00;99905.59;7399252;19;20024;-67
2023/10/30 07:51:39;;;;;;;4.30;1.55;;;;;;;11.52;100.00;99911.56;7398533;19;20026;-68
2023/10/30 07:54:09;;;;;;;2.63;0.80;;;;;;;11.54;100.00;99914.97;7398658;19;20363;-68
2023/10/30 07:56:37;;;;;;;4.82;1.42;;;;;;;11.57;100.00;99896.50;7398424;19;20440;-68
2023/10/30 07:59:07;;;;;;;7.07;1.15;;;;;;;11.60;100.00;99900.78;7398487;19;20017;-68
2023/10/30 08:01:39;;;;;;;2.97;1.25;;;;;;;11.64;100.00;99912.00;7398245;19;20077;-67
2023/10/30 08:04:09;;;;;;;7.53;1.77;;;;;;;11.66;100.00;99908.38;7393515;19;20014;-67
2023/10/30 08:06:38;;;;;;;2.80;0.88;;;;;;;11.69;100.00;99910.91;7395231;19;20028;-68
2023/10/30 08:09:08;;;;;;;4.22;1.00;;;;;;;11.71;100.00;99916.09;7396127;19;20014;-68
2023/10/30 08:11:37;;;;;;;3.13;1.20;;;;;;;11.72;100.00;99910.78;7395235;19;20029;-67
2023/10/30 08:14:05;;;;;;;2.67;0.93;;;;;;;11.70;100.00;99914.38;7395609;19;20375;-67
2023/10/30 08:16:35;;;;;;;4.18;1.02;;;;;;;11.76;100.00;99934.31;7396619;19;20481;-67
2023/10/30 08:19:07;;;;;;;2.63;1.00;;;;;;;11.77;100.00;99936.03;7397410;19;20371;-68
2023/10/30 08:21:35;;;;;;;5.07;1.23;;;;;;;11.79;100.00;99931.56;7397259;19;20078;-68
2023/10/30 08:24:04;;;;;;;7.78;1.40;;;;;;;11.79;100.00;99932.44;7396557;19;20018;-68
2023/10/30 08:26:33;;;;;;;4.28;1.10;;;;;;;11.81;100.00;99938.47;7397539;19;20039;-68
2023/10/30 08:29:01;;;;;;;5.35;1.42;;;;;;;11.83;99.94;99941.91;7397522;19;20014;-68
2023/10/30 08:31:30;;;;;;;4.32;0.90;;;;;;;11.85;100.00;99936.56;7396812;19;20372;-68
2023/10/30 08:34:00;;;;;;;2.25;0.90;;;;;;;11.87;100.00;99930.34;7397301;19;20028;-68
2023/10/30 08:36:32;;;;;;;5.35;1.17;;;;;;;11.91;100.00;99928.44;7397753;19;20022;-67
2023/10/30 08:39:00;;;;;;;4.30;1.15;;;;;;;11.93;100.00;99934.50;7397778;19;20014;-68
2023/10/30 08:41:28;;;;;;;1.90;0.77;;;;;;;11.96;99.90;99937.03;7397285;19;20018;-68
2023/10/30 08:43:57;;;;;;;3.30;1.27;;;;;;;11.99;100.00;99933.41;7395669;19;20031;-68
2023/10/30 08:46:25;;;;;;;8.90;1.45;;;;;;;12.00;99.73;99937.75;7394832;19;20020;-68
2023/10/30 08:48:55;;;;;;;32.30;22.90;;;;;;;12.02;99.82;99942.03;7395200;19;20018;-68
2023/10/30 08:51:23;;;;;;;16.67;12.88;;;;;;;12.04;99.63;99941.97;7396732;19;20018;-68
2023/10/30 08:53:54;;;;;;;4.40;2.75;;;;;;;12.06;99.56;99940.16;7394379;19;20011;-68
2023/10/30 08:56:23;;;;;;;3.67;1.60;;;;;;;12.08;99.97;99930.44;7397230;19;20032;-68
2023/10/30 08:58:51;;;;;;;3.03;0.98;;;;;;;12.10;99.65;99922.47;7395181;19;20074;-68
2023/10/30 09:01:26;;;;;;;4.97;1.20;;;;;;;12.12;99.59;99924.13;7395970;19;20024;-68
2023/10/30 09:03:55;;;;;;;3.75;1.40;;;;;;;12.15;99.62;99912.63;7395639;19;20029;-68
2023/10/30 09:06:24;;;;;;;3.90;1.27;;;;;;;12.19;99.87;99917.66;7396037;19;20010;-67
2023/10/30 09:08:55;;;;;;;3.33;1.02;;;;;;;12.23;99.46;99905.25;7393990;19;20018;-69
2023/10/30 09:11:24;;;;;;;2.17;0.80;;;;;;;12.27;99.41;99911.25;7395936;19;20007;-68
2023/10/30 09:13:53;;;;;;;4.60;0.90;;;;;;;12.31;99.08;99905.78;7393637;19;20011;-67
2023/10/30 09:16:21;;;;;;;5.35;1.33;;;;;;;12.35;98.63;99909.16;7394530;19;20027;-67
2023/10/30 09:18:51;;;;;;;5.97;1.00;;;;;;;12.39;99.00;99903.66;7394119;19;20023;-67
2023/10/30 09:21:20;;;;;;;3.60;1.40;;;;;;;12.45;98.28;99894.69;7395578;19;20014;-67
2023/10/30 09:23:48;;;;;;;3.63;1.60;;;;;;;12.49;97.31;99898.03;7394143;19;20438;-67
2023/10/30 09:26:20;;;;;;;5.10;1.90;;;;;;;12.54;97.83;99902.16;7395461;19;20011;-67
2023/10/30 09:28:48;;;;;;;6.45;1.50;;;;;;;12.58;96.71;99900.25;7393959;19;20477;-67
2023/10/30 09:31:16;;;;;;;4.35;1.15;;;;;;;12.61;97.02;99896.63;7395628;19;20014;-67
2023/10/30 09:33:45;;;;;;;4.95;1.23;;;;;;;12.64;96.78;99899.16;7395397;19;20020;-67
2023/10/30 09:36:13;;;;;;;4.55;1.23;;;;;;;12.67;96.61;99893.75;7395169;19;20473;-67
2023/10/30 09:38:42;;;;;;;3.10;1.15;;;;;;;12.68;95.86;99890.19;7393531;19;20082;-66
2023/10/30 09:41:14;;;;;;;7.05;1.90;;;;;;;12.70;95.38;99905.00;7393875;19;20373;-68
2023/10/30 09:43:45;;;;;;;3.95;1.35;;;;;;;12.71;95.96;99900.56;7393729;19;20373;-67
2023/10/30 09:46:16;;;;;;;7.63;1.20;;;;;;;12.72;95.02;99910.19;7393106;19;20420;-67
2023/10/30 09:48:53;;;;;;;4.03;1.20;;;;;;;12.73;95.30;99917.16;7394350;19;20031;-67
2023/10/30 09:51:23;;;;;;;2.40;1.10;;;;;;;12.73;94.37;99911.06;7393737;19;20098;-66
2023/10/30 09:54:02;;;;;;;4.63;1.13;;;;;;;12.74;94.01;99916.25;7393028;19;20356;-67
2023/10/30 09:56:32;;;;;;;6.18;1.30;;;;;;;12.73;94.41;99919.78;7394127;19;20010;-68
2023/10/30 09:59:03;;;;;;;3.47;1.20;;;;;;;12.78;94.07;99919.59;7394052;19;20018;-67
2023/10/30 10:01:31;;;;;;;6.57;0.90;;;;;;;12.80;94.11;99907.22;7392553;19;20031;-67
2023/10/30 10:04:00;;;;;;;3.95;0.77;;;;;;;12.85;93.61;99919.25;7392570;19;20136;-68
2023/10/30 10:06:28;;;;;;;5.40;1.10;;;;;;;12.89;93.86;99914.72;7394032;19;20021;-67
2023/10/30 10:08:57;;;;;;;4.63;0.88;;;;;;;12.94;93.78;99919.75;7392671;19;20010;-67
2023/10/30 10:11:32;;;;;;;3.03;0.80;;;;;;;12.98;94.04;99921.34;7393002;19;20018;-67
2023/10/30 10:14:04;;;;;;;4.20;0.80;;;;;;;13.01;93.93;99918.56;7392898;19;20014;-67
2023/10/30 10:16:32;;;;;;;6.60;0.90;;;;;;;13.06;93.63;99928.91;7393705;19;20439;-67
2023/10/30 10:19:01;;;;;;;4.63;1.05;;;;;;;13.08;93.50;99933.16;7393632;19;20431;-67
2023/10/30 10:21:29;;;;;;;5.50;1.42;;;;;;;13.12;93.70;99936.53;7391876;19;20082;-67
2023/10/30 10:23:57;;;;;;;5.88;0.90;;;;;;;13.14;93.29;99934.66;7392322;19;20070;-67
2023/10/30 10:26:32;;;;;;;6.07;1.20;;;;;;;13.17;93.02;99943.28;7394141;19;20481;-66
2023/10/30 10:29:04;;;;;;;6.10;1.15;;;;;;;13.21;93.33;99938.72;7401557;19;20549;-66
2023/10/30 10:31:33;;;;;;;4.25;1.10;;;;;;;13.24;92.66;99935.09;7400718;19;20014;-64
2023/10/30 10:34:01;;;;;;;5.13;0.93;;;;;;;13.30;93.15;99948.84;7400466;19;20027;-66
2023/10/30 10:36:34;;;;;;;5.53;1.02;;;;;;;13.34;92.44;99952.19;7400478;19;20024;-67
2023/10/30 10:39:03;;;;;;;2.88;0.90;;;;;;;13.36;92.69;99956.47;7400750;19;20481;-67
2023/10/30 10:41:32;;;;;;;2.83;1.00;;;;;;;13.40;92.49;99946.69;7401106;19;20021;-67
2023/10/30 10:44:07;;;;;;;4.20;1.23;;;;;;;13.43;91.90;99945.69;7399565;19;20480;-66
2023/10/30 10:46:35;;;;;;;4.53;1.27;;;;;;;13.46;92.31;99943.75;7401033;19;20023;-67
2023/10/30 10:49:04;;;;;;;3.15;0.98;;;;;;;13.51;91.77;99948.81;7397101;19;20035;-67
2023/10/30 10:51:36;;;;;;;5.18;1.23;;;;;;;13.54;91.89;99939.91;7399917;19;20034;-66
2023/10/30 10:54:08;;;;;;;5.03;1.15;;;;;;;13.58;91.71;99928.28;7399574;19;20011;-68
2023/10/30 10:56:40;;;;;;;9.50;2.42;;;;;;;13.61;91.80;99929.00;7399821;19;20014;-71
2023/10/30 10:59:16;;;;;;;8.68;3.20;;;;;;;13.66;90.98;99931.41;7400144;19;20379;-67
2023/10/30 11:01:50;;;;;;;3.60;1.15;;;;;;;13.71;91.37;99929.44;7399572;19;20007;-70
2023/10/30 11:04:19;;;;;;;5.90;1.40;;;;;;;13.77;91.37;99915.09;7399588;19;20035;-67
2023/10/30 11:06:53;;;;;;;5.68;1.48;;;;;;;13.81;90.56;99919.28;7397581;19;20035;-67
2023/10/30 11:09:27;;;;;;;5.07;1.27;;;;;;;13.84;90.58;99917.34;7401104;19;20028;-67
2023/10/30 11:12:09;;;;;;;3.17;1.08;;;;;;;13.89;90.61;99901.31;7400926;19;20006;-66
2023/10/30 11:14:49;;;;;;;9.35;2.13;;;;;;;13.93;90.01;99896.75;7398280;19;20019;-66
2023/10/30 11:17:17;;;;;;;7.18;2.53;;;;;;;13.95;89.00;99908.94;7398516;19;20028;-66
2023/10/30 11:19:46;;;;;;;6.22;1.98;;;;;;;13.97;88.77;99924.66;7399066;19;20021;-66
2023/10/30 11:22:15;;;;;;;5.32;1.08;;;;;;;14.00;88.77;99927.13;7395982;19;20387;-66
2023/10/30 11:24:44;;;;;;;2.67;0.90;;;;;;;14.00;88.25;99920.09;7397130;19;20405;-66
2023/10/30 11:27:38;;;;;;;2.35;1.10;;;;;;;14.01;88.23;99919.19;7395818;19;20469;-65
2023/10/30 11:30:11;;;;;;;3.38;1.45;;;;;;;14.04;88.63;99914.66;7398390;19;20013;-66
2023/10/30 11:32:56;;;;;;;4.55;1.70;;;;;;;14.06;88.03;99911.03;7399699;19;20040;-67
2023/10/30 11:35:25;;;;;;;6.25;1.63;;;;;;;14.10;88.02;99909.97;7399245;19;20010;-67
2023/10/30 11:37:54;;;;;;;4.07;1.17;;;;;;;14.14;87.75;99903.59;7398464;19;20027;-68